Time;durP1;ratioP1;P1;durP2;ratioP2;P2;SDS_P1;SDS_P2;PMS_P1;PMS_P2;Temp;Humidity;BMP_temperature;BMP_pressure;BME280_temperature;BME280_humidity;BME280_pressure;Samples;Min_cycle;Max_cycle;Signal;HPM_P1;HPM_P2
2021/03/09 00:01:24;;;;;;;39.90;17.47;;;2.70;1.00;;;;;;5136182;27;20178;-64
2021/03/09 00:03:50;;;;;;;6.07;4.00;;;2.80;1.00;;;;;;5135464;27;20179;-64
2021/03/09 00:06:15;;;;;;;3.63;2.93;;;2.80;1.00;;;;;;5136530;27;20195;-65
2021/03/09 00:08:41;;;;;;;4.43;2.50;;;2.80;1.00;;;;;;5136539;27;20281;-65
2021/03/09 00:11:06;;;;;;;4.37;3.07;;;2.80;1.00;;;;;;5137064;27;20170;-64
2021/03/09 00:13:32;;;;;;;5.00;2.70;;;2.70;1.00;;;;;;5136810;27;20258;-65
2021/03/09 00:15:58;;;;;;;4.87;3.10;;;2.80;1.00;;;;;;5136692;27;20174;-65
2021/03/09 00:18:23;;;;;;;7.00;4.23;;;2.50;1.00;;;;;;5136648;27;20221;-65
2021/03/09 00:20:49;;;;;;;4.00;2.30;;;2.40;1.00;;;;;;5136812;27;20183;-65
2021/03/09 00:23:14;;;;;;;4.20;2.80;;;2.50;1.00;;;;;;5136660;27;20239;-65
2021/03/09 00:25:40;;;;;;;4.23;2.73;;;2.40;1.00;;;;;;5137014;27;20459;-65
2021/03/09 00:28:06;;;;;;;5.33;3.10;;;2.30;1.00;;;;;;5136959;27;20206;-65
2021/03/09 00:30:31;;;;;;;4.37;2.63;;;2.30;1.00;;;;;;5136958;27;20511;-65
2021/03/09 00:32:57;;;;;;;4.00;3.50;;;2.20;1.00;;;;;;5136890;27;20183;-66
2021/03/09 00:35:22;;;;;;;2.57;2.37;;;2.30;1.00;;;;;;5136581;27;20221;-65
2021/03/09 00:37:48;;;;;;;6.63;2.90;;;2.30;1.00;;;;;;5136476;27;20605;-66
2021/03/09 00:40:14;;;;;;;4.03;2.73;;;2.30;1.00;;;;;;5136580;28;20503;-66
2021/03/09 00:42:39;;;;;;;3.80;2.80;;;2.30;1.00;;;;;;5136674;27;20550;-65
2021/03/09 00:45:05;;;;;;;4.00;2.80;;;2.10;1.00;;;;;;5136200;28;20435;-66
2021/03/09 00:47:31;;;;;;;5.23;3.10;;;2.20;1.00;;;;;;5136584;28;20236;-65
2021/03/09 00:49:56;;;;;;;2.90;2.60;;;2.00;1.00;;;;;;5136584;28;20435;-66
2021/03/09 00:52:22;;;;;;;6.73;3.73;;;2.10;1.00;;;;;;5136601;27;20188;-63
2021/03/09 00:54:48;;;;;;;4.73;2.90;;;2.10;1.00;;;;;;5136126;28;20193;-63
2021/03/09 00:57:13;;;;;;;4.80;2.87;;;2.00;1.00;;;;;;5136893;28;20599;-63
2021/03/09 00:59:39;;;;;;;2.57;2.20;;;2.00;1.00;;;;;;5136660;28;20187;-63
2021/03/09 01:02:04;;;;;;;6.03;3.93;;;2.20;1.00;;;;;;5136950;28;20183;-63
2021/03/09 01:04:30;;;;;;;7.03;3.37;;;2.10;1.00;;;;;;5136534;27;20178;-63
2021/03/09 01:06:56;;;;;;;3.43;2.53;;;2.00;1.00;;;;;;5137100;28;20261;-62
2021/03/09 01:09:21;;;;;;;4.73;3.20;;;2.00;1.00;;;;;;5136662;28;20534;-62
2021/03/09 01:11:47;;;;;;;3.40;2.90;;;2.10;1.00;;;;;;5136587;28;20182;-62
2021/03/09 01:14:13;;;;;;;16.73;8.83;;;2.20;1.00;;;;;;5136320;28;20179;-62
2021/03/09 01:16:38;;;;;;;27.63;14.90;;;2.20;1.00;;;;;;5139812;27;20455;-62
2021/03/09 01:19:04;;;;;;;5.63;3.20;;;2.20;1.00;;;;;;5139979;27;20186;-61
2021/03/09 01:21:32;;;;;;;2.83;2.17;;;2.20;1.00;;;;;;5140948;27;20191;-62
2021/03/09 01:23:58;;;;;;;4.07;3.15;;;2.00;1.00;;;;;;5140394;27;20183;-63
2021/03/09 01:26:23;;;;;;;4.60;3.47;;;2.00;1.00;;;;;;5140488;27;20189;-62
2021/03/09 01:28:50;;;;;;;5.90;3.00;;;2.10;1.00;;;;;;5140732;27;20228;-62
2021/03/09 01:31:16;;;;;;;3.60;3.00;;;2.10;1.00;;;;;;5140080;27;20253;-62
2021/03/09 01:33:42;;;;;;;2.80;2.47;;;2.10;1.00;;;;;;5140049;27;20186;-62
2021/03/09 01:36:07;;;;;;;3.57;2.57;;;2.10;1.00;;;;;;5140258;27;20188;-67
2021/03/09 01:38:33;;;;;;;4.03;2.63;;;2.20;1.00;;;;;;5140207;27;20188;-63
2021/03/09 01:40:59;;;;;;;5.77;2.60;;;2.30;1.00;;;;;;5140822;27;20251;-63
2021/03/09 01:43:25;;;;;;;6.77;2.40;;;2.20;1.00;;;;;;5140556;27;20549;-62
2021/03/09 01:45:50;;;;;;;3.00;2.53;;;2.10;1.00;;;;;;5140426;27;20185;-64
2021/03/09 01:48:26;;;;;;;4.53;2.50;;;2.00;1.00;;;;;;5139882;27;20550;-65
2021/03/09 01:50:51;;;;;;;2.70;2.50;;;2.00;1.00;;;;;;5140168;27;20166;-64
2021/03/09 01:53:18;;;;;;;2.07;1.90;;;2.20;1.00;;;;;;5139657;27;20652;-64
2021/03/09 01:55:43;;;;;;;3.25;2.30;;;2.10;1.00;;;;;;5139738;27;20194;-64
2021/03/09 01:58:12;;;;;;;2.97;2.33;;;2.10;1.00;;;;;;5140715;27;20255;-64
2021/03/09 02:00:39;;;;;;;3.25;2.33;;;2.20;1.00;;;;;;5139188;27;20515;-65
2021/03/09 02:03:06;;;;;;;6.45;1.95;;;2.20;1.00;;;;;;5140069;27;20191;-63
2021/03/09 02:05:31;;;;;;;3.45;2.50;;;2.10;1.00;;;;;;5139742;27;20576;-65
2021/03/09 02:07:59;;;;;;;4.87;2.40;;;2.00;1.00;;;;;;5139876;27;20206;-64
2021/03/09 02:10:26;;;;;;;3.97;2.42;;;1.90;1.00;;;;;;5140336;27;20171;-66
2021/03/09 02:13:01;;;;;;;3.97;2.10;;;1.90;1.00;;;;;;5139794;27;20171;-64
2021/03/09 02:15:48;;;;;;;3.22;2.65;;;1.80;1.00;;;;;;5139656;27;20514;-63
2021/03/09 02:18:42;;;;;;;3.40;2.35;;;1.90;1.00;;;;;;5139678;27;20202;-67
2021/03/09 02:21:30;;;;;;;3.42;2.67;;;2.00;1.00;;;;;;5139322;27;20213;-64
2021/03/09 02:24:18;;;;;;;4.78;2.30;;;2.10;1.00;;;;;;5138721;27;20571;-64
2021/03/09 02:26:50;;;;;;;5.75;2.42;;;2.30;1.00;;;;;;5137766;27;20644;-63
2021/03/09 02:29:37;;;;;;;3.08;2.58;;;2.50;1.00;;;;;;5138890;27;20209;-64
2021/03/09 02:32:06;;;;;;;4.47;2.53;;;2.40;1.00;;;;;;5138931;27;20186;-64
2021/03/09 02:34:36;;;;;;;3.38;2.40;;;2.30;1.00;;;;;;5139141;27;20167;-63
2021/03/09 02:37:11;;;;;;;7.93;3.42;;;2.30;1.00;;;;;;5138885;27;20175;-62
2021/03/09 02:39:42;;;;;;;3.72;2.28;;;2.40;1.00;;;;;;5138246;27;20190;-64
2021/03/09 02:42:09;;;;;;;5.22;2.58;;;2.60;1.00;;;;;;5139078;27;20182;-65
2021/03/09 02:44:37;;;;;;;4.30;3.00;;;2.50;1.00;;;;;;5138412;27;20227;-66
2021/03/09 02:47:05;;;;;;;2.70;2.50;;;2.40;1.00;;;;;;5138363;27;20183;-64
2021/03/09 02:49:34;;;;;;;4.35;3.15;;;2.40;1.00;;;;;;5138705;27;20247;-65
2021/03/09 02:52:01;;;;;;;4.82;2.35;;;2.30;1.00;;;;;;5138630;27;20171;-65
2021/03/09 02:54:28;;;;;;;7.97;2.95;;;2.50;1.00;;;;;;5137031;27;20175;-65
2021/03/09 02:56:54;;;;;;;4.38;2.38;;;2.50;1.00;;;;;;5138048;27;20186;-66
2021/03/09 02:59:21;;;;;;;3.30;2.63;;;2.60;1.00;;;;;;5138143;27;20174;-66
2021/03/09 03:01:48;;;;;;;4.63;2.78;;;2.40;1.00;;;;;;5137791;27;20504;-65
2021/03/09 03:04:17;;;;;;;4.20;3.42;;;2.50;1.00;;;;;;5137622;27;20238;-65
2021/03/09 03:06:45;;;;;;;5.18;2.90;;;2.50;1.00;;;;;;5137716;27;20202;-65
2021/03/09 03:09:13;;;;;;;10.27;2.90;;;2.60;1.00;;;;;;5137774;27;20589;-64
2021/03/09 03:11:41;;;;;;;7.70;3.30;;;2.70;1.00;;;;;;5137529;27;20203;-66
2021/03/09 03:14:07;;;;;;;3.97;2.70;;;2.80;1.00;;;;;;5137259;27;20486;-64
2021/03/09 03:16:37;;;;;;;3.22;2.92;;;2.90;1.00;;;;;;5137547;27;20171;-66
2021/03/09 03:19:05;;;;;;;4.57;2.88;;;3.00;1.00;;;;;;5136676;27;20178;-65
2021/03/09 03:21:31;;;;;;;2.90;2.60;;;2.80;1.00;;;;;;5136552;27;20186;-66
2021/03/09 03:24:01;;;;;;;4.65;2.60;;;3.00;1.00;;;;;;5136621;27;20198;-65
2021/03/09 03:26:28;;;;;;;3.70;2.40;;;3.00;1.00;;;;;;5137444;27;20182;-64
2021/03/09 03:28:55;;;;;;;5.85;2.60;;;3.10;1.00;;;;;;5136803;27;20199;-65
2021/03/09 03:31:21;;;;;;;6.55;2.70;;;3.00;1.00;;;;;;5137411;27;20206;-64
2021/03/09 03:33:48;;;;;;;4.50;2.38;;;2.90;1.00;;;;;;5137831;27;20186;-64
2021/03/09 03:36:15;;;;;;;3.97;2.33;;;2.90;1.00;;;;;;5136922;27;20171;-64
2021/03/09 03:38:42;;;;;;;5.88;3.00;;;3.00;1.00;;;;;;5136275;27;20174;-64
2021/03/09 03:41:09;;;;;;;4.07;2.70;;;3.30;1.00;;;;;;5136282;27;20179;-64
2021/03/09 03:43:36;;;;;;;4.13;2.88;;;3.50;1.00;;;;;;5135674;27;20171;-66
2021/03/09 03:46:02;;;;;;;3.90;2.30;;;3.50;1.00;;;;;;5136760;27;20182;-64
2021/03/09 03:48:32;;;;;;;3.10;2.70;;;3.50;1.00;;;;;;5136922;27;20263;-64
2021/03/09 03:51:00;;;;;;;3.28;2.60;;;3.50;1.00;;;;;;5136756;27;20178;-64
2021/03/09 03:53:28;;;;;;;2.50;2.30;;;3.60;1.00;;;;;;5136767;27;20171;-65
2021/03/09 03:56:22;;;;;;;5.13;3.00;;;3.20;1.00;;;;;;5136956;27;20311;-66
2021/03/09 03:58:53;;;;;;;4.43;2.85;;;3.20;1.00;;;;;;5136622;27;20175;-66
2021/03/09 04:01:21;;;;;;;4.13;3.05;;;3.40;1.00;;;;;;5136437;27;20543;-66
2021/03/09 04:03:50;;;;;;;3.13;2.13;;;3.10;1.00;;;;;;5137119;27;20174;-65
2021/03/09 04:06:18;;;;;;;4.28;2.53;;;2.80;1.00;;;;;;5137026;27;20278;-65
2021/03/09 04:08:44;;;;;;;4.53;2.60;;;2.80;1.00;;;;;;5137552;27;20205;-65
2021/03/09 04:11:09;;;;;;;5.00;2.63;;;2.70;1.00;;;;;;5137226;27;20171;-65
2021/03/09 04:13:37;;;;;;;5.60;3.47;;;2.60;1.00;;;;;;5137349;27;20166;-66
2021/03/09 04:16:04;;;;;;;7.38;2.85;;;2.80;1.00;;;;;;5137225;27;20174;-65
2021/03/09 04:18:30;;;;;;;3.03;2.63;;;2.70;1.00;;;;;;5136953;27;20262;-65
2021/03/09 04:20:57;;;;;;;4.20;2.90;;;2.70;1.00;;;;;;5136539;27;20185;-66
2021/03/09 04:23:24;;;;;;;3.40;2.33;;;2.80;1.00;;;;;;5136910;27;20189;-65
2021/03/09 04:25:52;;;;;;;5.85;2.33;;;2.80;1.00;;;;;;5136039;27;20179;-66
2021/03/09 04:28:18;;;;;;;3.95;2.72;;;2.80;1.00;;;;;;5136780;27;20582;-65
2021/03/09 04:30:44;;;;;;;3.17;2.38;;;2.80;1.00;;;;;;5136786;27;20186;-65
2021/03/09 04:33:10;;;;;;;2.75;2.05;;;2.80;1.00;;;;;;5136875;27;20511;-65
2021/03/09 04:35:37;;;;;;;3.10;2.33;;;2.60;1.00;;;;;;5136895;27;20178;-65
2021/03/09 04:38:03;;;;;;;2.65;2.20;;;2.40;1.00;;;;;;5137479;27;20488;-65
2021/03/09 04:40:30;;;;;;;2.87;2.33;;;2.30;1.00;;;;;;5137061;27;20261;-65
2021/03/09 04:42:56;;;;;;;3.88;2.50;;;2.30;1.00;;;;;;5137112;27;20825;-66
2021/03/09 04:45:22;;;;;;;2.58;2.38;;;2.30;1.00;;;;;;5136793;27;20559;-66
2021/03/09 04:47:47;;;;;;;4.83;2.10;;;2.40;1.00;;;;;;5135900;28;20198;-67
2021/03/09 04:50:15;;;;;;;3.60;1.97;;;2.50;1.00;;;;;;5136763;27;20257;-66
2021/03/09 04:52:45;;;;;;;2.55;2.08;;;2.50;1.00;;;;;;5141525;27;20187;-64
2021/03/09 04:55:13;;;;;;;5.70;2.38;;;2.50;1.00;;;;;;5141047;27;20178;-64
2021/03/09 04:57:41;;;;;;;3.03;1.80;;;2.60;1.00;;;;;;5141719;27;20208;-64
2021/03/09 05:00:10;;;;;;;6.03;2.38;;;2.50;1.00;;;;;;5141769;27;20633;-64
2021/03/09 05:02:35;;;;;;;4.00;2.00;;;2.40;1.00;;;;;;5141003;27;20218;-64
2021/03/09 05:05:01;;;;;;;3.70;1.87;;;2.50;1.00;;;;;;5141241;27;20511;-64
2021/03/09 05:07:27;;;;;;;6.10;1.97;;;2.40;1.00;;;;;;5141159;27;20182;-66
2021/03/09 05:09:53;;;;;;;4.17;2.10;;;2.40;1.00;;;;;;5141069;27;20179;-65
2021/03/09 05:12:18;;;;;;;2.57;1.90;;;2.40;1.00;;;;;;5140851;27;20420;-65
2021/03/09 05:14:44;;;;;;;3.97;2.00;;;2.40;1.00;;;;;;5140254;27;20190;-65
2021/03/09 05:17:13;;;;;;;6.30;2.50;;;2.60;1.00;;;;;;5140414;27;20261;-64
2021/03/09 05:19:39;;;;;;;3.08;2.08;;;2.70;1.00;;;;;;5140431;27;20183;-65
2021/03/09 05:22:05;;;;;;;5.10;2.70;;;2.90;1.00;;;;;;5140085;27;20197;-66
2021/03/09 05:24:30;;;;;;;3.30;2.22;;;2.80;1.00;;;;;;5140157;27;20761;-66
2021/03/09 05:26:56;;;;;;;4.13;2.23;;;2.80;1.00;;;;;;5140324;27;20658;-65
2021/03/09 05:29:22;;;;;;;3.20;2.63;;;2.60;1.00;;;;;;5140206;27;20212;-66
2021/03/09 05:31:47;;;;;;;3.40;2.20;;;2.40;10.40;;;;;;5139680;27;20179;-66
2021/03/09 05:34:13;;;;;;;3.73;2.33;;;2.50;96.80;;;;;;5139492;27;20171;-69
2021/03/09 05:36:38;;;;;;;4.10;2.30;;;2.50;99.90;;;;;;5139725;27;20255;-66
2021/03/09 05:39:04;;;;;;;6.37;2.57;;;2.50;99.90;;;;;;5139783;27;20309;-64
2021/03/09 05:41:30;;;;;;;4.73;2.77;;;2.50;99.90;;;;;;5140028;27;20183;-65
2021/03/09 05:43:56;;;;;;;4.43;1.80;;;2.40;1.00;;;;;;5138872;27;20888;-65
2021/03/09 05:46:22;;;;;;;4.15;2.42;;;2.00;1.00;;;;;;5140297;27;20179;-65
2021/03/09 05:48:48;;;;;;;4.40;2.43;;;2.00;78.60;;;;;;5140409;27;20232;-66
2021/03/09 05:51:14;;;;;;;2.40;1.83;;;2.00;1.00;;;;;;5140391;27;20897;-66
2021/03/09 05:53:39;;;;;;;3.70;2.78;;;1.80;99.90;;;;;;5140192;27;20182;-66
2021/03/09 05:56:06;;;;;;;2.60;1.93;;;1.80;1.00;;;;;;5133895;27;20183;-67
2021/03/09 05:58:32;;;;;;;3.05;2.00;;;1.60;99.90;;;;;;5132908;27;20191;-65
2021/03/09 06:00:57;;;;;;;3.22;2.03;;;1.40;1.00;;;;;;5139571;27;20215;-65
2021/03/09 06:03:26;;;;;;;3.60;2.47;;;1.10;99.90;;;;;;5140587;27;20599;-63
2021/03/09 06:05:53;;;;;;;3.15;2.42;;;1.00;1.00;;;;;;5133922;27;20651;-64
2021/03/09 06:08:19;;;;;;;3.30;2.47;;;1.10;1.00;;;;;;5138946;27;20207;-64
2021/03/09 06:10:46;;;;;;;4.70;2.55;;;1.00;99.90;;;;;;5132399;27;20336;-68
2021/03/09 06:13:34;;;;;;;5.50;2.90;;;0.80;1.00;;;;;;5131694;27;20227;-64
2021/03/09 06:16:00;;;;;;;5.50;2.85;;;0.80;99.90;;;;;;5134773;27;20179;-65
2021/03/09 06:18:26;;;;;;;4.70;3.28;;;0.80;1.00;;;;;;5136213;27;20209;-64
2021/03/09 06:21:08;;;;;;;6.03;2.70;;;0.90;1.00;;;;;;5137756;27;20190;-64
2021/03/09 06:23:34;;;;;;;3.22;2.25;;;0.80;1.00;;;;;;5136414;27;20243;-67
2021/03/09 06:26:00;;;;;;;4.50;2.38;;;0.80;67.50;;;;;;5137415;27;20190;-63
2021/03/09 06:28:30;;;;;;;5.40;2.40;;;0.70;99.90;;;;;;5135140;27;20655;-64
2021/03/09 06:30:59;;;;;;;3.85;2.90;;;0.70;99.90;;;;;;5133845;27;20178;-63
2021/03/09 06:33:29;;;;;;;6.80;2.95;;;0.70;99.90;;;;;;5139196;27;20202;-64
2021/03/09 06:35:56;;;;;;;7.57;3.05;;;0.60;99.90;;;;;;5132848;27;20208;-64
2021/03/09 06:38:25;;;;;;;5.93;3.72;;;0.60;99.90;;;;;;5135648;27;20640;-64
2021/03/09 06:41:16;;;;;;;6.22;2.88;;;0.70;1.00;;;;;;5133870;27;20503;-63
2021/03/09 06:43:44;;;;;;;3.45;2.25;;;0.90;1.00;;;;;;5138834;27;20216;-64
2021/03/09 06:46:21;;;;;;;3.85;2.60;;;0.90;1.00;;;;;;5138949;27;20213;-67
2021/03/09 06:48:50;;;;;;;4.43;2.78;;;0.80;1.00;;;;;;5135227;27;20206;-63
2021/03/09 06:51:33;;;;;;;8.10;3.00;;;0.80;1.00;;;;;;5137413;27;20171;-64
2021/03/09 06:54:05;;;;;;;10.32;3.13;;;0.70;1.00;;;;;;5130869;27;20549;-63
2021/03/09 06:56:34;;;;;;;3.55;3.00;;;0.70;1.00;;;;;;5130214;27;20183;-64
2021/03/09 06:59:22;;;;;;;4.38;2.80;;;0.80;1.00;;;;;;5138244;27;20186;-64
2021/03/09 07:02:08;;;;;;;7.13;3.33;;;0.70;1.00;;;;;;5132241;27;20671;-64
2021/03/09 07:04:35;;;;;;;3.53;2.55;;;0.80;1.00;;;;;;5138945;27;20462;-64
2021/03/09 07:07:01;;;;;;;5.20;2.75;;;0.80;1.00;;;;;;5133198;27;20182;-66
2021/03/09 07:09:27;;;;;;;3.13;2.10;;;0.90;1.00;;;;;;5138795;27;20649;-67
2021/03/09 07:11:55;;;;;;;4.53;3.00;;;0.70;1.00;;;;;;5138941;27;20505;-64
2021/03/09 07:14:22;;;;;;;5.35;3.13;;;0.50;1.00;;;;;;5138838;27;20182;-64
2021/03/09 07:16:50;;;;;;;3.10;2.58;;;0.80;1.00;;;;;;5129320;27;20195;-62
2021/03/09 07:19:33;;;;;;;5.90;2.92;;;0.70;1.00;;;;;;5135620;27;20288;-63
2021/03/09 07:22:00;;;;;;;3.67;3.20;;;0.80;1.00;;;;;;5132913;27;20606;-63
2021/03/09 07:24:26;;;;;;;4.25;2.58;;;0.80;1.00;;;;;;5137353;27;20179;-64
2021/03/09 07:27:01;;;;;;;10.32;4.25;;;0.70;1.00;;;;;;5139217;27;20224;-63
2021/03/09 07:29:28;;;;;;;4.57;3.15;;;0.80;1.00;;;;;;5138658;27;20238;-65
2021/03/09 07:31:56;;;;;;;6.38;3.03;;;0.70;1.00;;;;;;5139099;27;20189;-65
2021/03/09 07:34:23;;;;;;;7.97;3.60;;;0.80;1.00;;;;;;5134141;27;20179;-64
2021/03/09 07:36:50;;;;;;;4.18;3.55;;;0.80;1.00;;;;;;5127735;27;20182;-63
2021/03/09 07:39:18;;;;;;;6.30;3.60;;;0.80;1.00;;;;;;5137342;27;20186;-67
2021/03/09 07:41:44;;;;;;;5.15;2.92;;;0.80;1.00;;;;;;5139369;27;20196;-64
2021/03/09 07:44:13;;;;;;;4.57;3.60;;;0.80;1.00;;;;;;5137646;27;20190;-67
2021/03/09 07:46:42;;;;;;;8.10;3.97;;;0.80;1.00;;;;;;5129093;27;20170;-67
2021/03/09 07:49:08;;;;;;;3.90;3.22;;;0.80;1.00;;;;;;5130406;27;20195;-68
2021/03/09 07:51:33;;;;;;;7.07;3.63;;;0.90;1.00;;;;;;5118787;28;20187;-67
2021/03/09 07:54:11;;;;;;;6.03;3.97;;;1.00;1.00;;;;;;5130087;27;20212;-69
2021/03/09 07:56:37;;;;;;;4.97;4.03;;;0.90;1.00;;;;;;5127549;27;20489;-68
2021/03/09 07:59:07;;;;;;;3.63;3.03;;;0.90;1.00;;;;;;5118085;28;20190;-68
2021/03/09 08:01:46;;;;;;;5.40;4.05;;;0.80;1.00;;;;;;5122582;27;20178;-69
2021/03/09 08:04:12;;;;;;;5.40;4.18;;;0.90;1.00;;;;;;5138853;27;20178;-66
2021/03/09 08:06:45;;;;;;;4.93;3.47;;;0.90;1.00;;;;;;5138413;27;20673;-66
2021/03/09 08:09:34;;;;;;;5.72;3.70;;;0.90;1.00;;;;;;5138480;27;20468;-64
2021/03/09 08:12:00;;;;;;;5.28;3.20;;;1.10;1.00;;;;;;5138497;27;20713;-66
2021/03/09 08:14:26;;;;;;;5.10;3.67;;;1.10;1.00;;;;;;5138024;27;20179;-65
2021/03/09 08:16:53;;;;;;;5.57;3.53;;;1.10;1.00;;;;;;5136847;27;20189;-67
2021/03/09 08:19:24;;;;;;;5.85;4.10;;;1.10;1.00;;;;;;5127850;27;20185;-65
2021/03/09 08:22:04;;;;;;;7.88;3.55;;;1.10;1.00;;;;;;5118495;28;20179;-70
2021/03/09 08:24:53;;;;;;;4.05;3.53;;;1.10;1.00;;;;;;5118622;28;20170;-72
2021/03/09 08:27:28;;;;;;;9.40;3.80;;;1.10;1.00;;;;;;5117953;28;20187;-72
2021/03/09 08:30:18;;;;;;;4.40;3.20;;;1.20;1.00;;;;;;5118868;28;20213;-69
2021/03/09 08:32:45;;;;;;;5.10;3.72;;;1.10;1.00;;;;;;5110206;28;20208;-64
2021/03/09 08:35:13;;;;;;;9.40;4.10;;;1.20;1.00;;;;;;5116772;28;20203;-68
2021/03/09 08:37:44;;;;;;;5.78;4.03;;;1.30;1.00;;;;;;5135835;27;20187;-69
2021/03/09 08:40:16;;;;;;;5.15;4.25;;;1.40;1.00;;;;;;5139834;27;20227;-71
2021/03/09 08:43:00;;;;;;;7.30;3.70;;;1.40;1.00;;;;;;5142701;27;20791;-69
2021/03/09 08:45:51;;;;;;;6.50;3.65;;;1.30;1.00;;;;;;5139181;28;20202;-68
2021/03/09 08:48:17;;;;;;;7.88;4.72;;;1.20;1.00;;;;;;5140574;28;20270;-72
2021/03/09 08:50:46;;;;;;;16.63;9.50;;;1.40;1.00;;;;;;5140737;27;20191;-65
2021/03/09 08:53:31;;;;;;;8.35;4.90;;;1.50;1.00;;;;;;5138391;27;20167;-69
2021/03/09 08:55:58;;;;;;;5.85;4.72;;;1.40;1.00;;;;;;5140548;27;20186;-69
2021/03/09 08:58:24;;;;;;;6.35;5.20;;;1.20;1.00;;;;;;5139874;28;20181;-70
2021/03/09 09:00:50;;;;;;;11.32;5.65;;;1.30;1.00;;;;;;5137675;28;20316;-64
2021/03/09 09:03:36;;;;;;;6.40;4.25;;;1.30;1.00;;;;;;5137744;27;20177;-63
2021/03/09 09:06:02;;;;;;;5.70;4.07;;;1.40;1.00;;;;;;5138609;27;20269;-68
2021/03/09 09:08:28;;;;;;;7.43;4.55;;;1.30;1.00;;;;;;5137942;27;20213;-67
2021/03/09 09:10:54;;;;;;;6.40;4.97;;;1.20;1.00;;;;;;5138114;27;20188;-66
2021/03/09 09:13:27;;;;;;;11.43;5.77;;;1.30;1.00;;;;;;5138319;28;20202;-65
2021/03/09 09:15:53;;;;;;;6.63;3.83;;;1.30;1.00;;;;;;5138882;27;20175;-68
2021/03/09 09:18:21;;;;;;;7.70;5.73;;;1.30;1.00;;;;;;5138362;27;20223;-72
2021/03/09 09:20:48;;;;;;;11.38;6.10;;;1.50;1.00;;;;;;5136963;28;20600;-66
2021/03/09 09:23:26;;;;;;;8.38;5.38;;;1.50;1.00;;;;;;5136224;28;20189;-64
2021/03/09 09:25:57;;;;;;;11.10;5.90;;;1.80;1.00;;;;;;5136895;27;20182;-64
2021/03/09 09:28:34;;;;;;;6.70;4.63;;;1.80;1.00;;;;;;5137461;27;20248;-68
2021/03/09 09:31:08;;;;;;;6.28;4.55;;;1.90;1.00;;;;;;5116811;28;20248;-67
2021/03/09 09:33:34;;;;;;;7.63;4.55;;;1.90;1.00;;;;;;5122585;28;20202;-71
2021/03/09 09:36:00;;;;;;;8.73;5.27;;;2.00;1.00;;;;;;5136176;27;20262;-68
2021/03/09 09:38:25;;;;;;;14.33;4.47;;;1.90;99.90;;;;;;5141415;27;20179;-67
2021/03/09 09:40:53;;;;;;;17.63;7.90;;;1.90;99.90;;;;;;5141270;27;20186;-67
2021/03/09 09:43:21;;;;;;;12.57;6.05;;;2.00;99.90;;;;;;5139280;27;20285;-68
2021/03/09 09:46:01;;;;;;;10.05;6.85;;;2.10;99.90;;;;;;5140895;27;20179;-65
2021/03/09 09:48:29;;;;;;;9.65;5.72;;;2.00;99.90;;;;;;5140723;27;20300;-64
2021/03/09 09:51:00;;;;;;;7.80;5.32;;;1.90;99.90;;;;;;5141016;27;20550;-65
2021/03/09 09:53:40;;;;;;;12.43;6.28;;;1.90;99.90;;;;;;5140608;27;20171;-67
2021/03/09 09:56:20;;;;;;;11.85;5.60;;;2.00;99.90;;;;;;5140807;27;20203;-66
2021/03/09 09:58:49;;;;;;;12.57;6.45;;;2.10;99.90;;;;;;5140509;27;20205;-66
2021/03/09 10:01:16;;;;;;;9.70;6.60;;;2.30;1.00;;;;;;5140795;27;20513;-66
2021/03/09 10:04:04;;;;;;;13.63;6.20;;;2.30;99.90;;;;;;5140981;27;20175;-64
2021/03/09 10:06:49;;;;;;;9.73;6.07;;;2.30;99.90;;;;;;5139884;27;20393;-65
2021/03/09 10:09:22;;;;;;;10.25;6.03;;;2.30;99.90;;;;;;5140096;27;20190;-68
2021/03/09 10:11:49;;;;;;;6.00;5.30;;;2.40;99.90;;;;;;5138930;27;20178;-65
2021/03/09 10:14:16;;;;;;;7.22;4.47;;;2.30;99.90;;;;;;5140365;27;20200;-65
2021/03/09 10:16:43;;;;;;;7.80;5.10;;;2.20;98.40;;;;;;5140591;27;20570;-68
2021/03/09 10:19:18;;;;;;;9.65;5.65;;;2.20;99.90;;;;;;5140543;27;20199;-68
2021/03/09 10:21:55;;;;;;;8.95;5.93;;;2.10;99.90;;;;;;5140660;27;20477;-68
2021/03/09 10:24:23;;;;;;;5.38;4.40;;;2.20;99.90;;;;;;5139908;27;20183;-66
2021/03/09 10:26:50;;;;;;;8.85;4.88;;;2.20;99.90;;;;;;5139121;27;20179;-65
2021/03/09 10:29:18;;;;;;;7.03;4.68;;;2.20;99.90;;;;;;5139443;27;20269;-66
2021/03/09 10:31:54;;;;;;;8.85;5.32;;;2.20;98.70;;;;;;5137472;27;20170;-66
2021/03/09 10:34:33;;;;;;;9.43;5.45;;;2.40;47.80;;;;;;5115536;28;20190;-61
2021/03/09 10:37:01;;;;;;;7.30;4.53;;;2.30;1.00;;;;;;5116032;28;20218;-61
2021/03/09 10:39:32;;;;;;;6.88;4.65;;;2.40;1.00;;;;;;5126386;27;20638;-62
2021/03/09 10:42:24;;;;;;;11.48;6.05;;;2.50;1.00;;;;;;5134869;27;20230;-62
2021/03/09 10:44:50;;;;;;;8.07;4.32;;;2.50;99.90;;;;;;5126228;27;20182;-62
2021/03/09 10:47:16;;;;;;;10.88;5.03;;;2.60;1.00;;;;;;5137125;27;20235;-62
2021/03/09 10:49:41;;;;;;;13.50;4.57;;;2.70;1.00;;;;;;5135001;27;20206;-61
2021/03/09 10:52:09;;;;;;;6.33;4.50;;;2.70;99.90;;;;;;5137234;27;20202;-62
2021/03/09 10:54:37;;;;;;;6.30;4.50;;;2.70;99.90;;;;;;5136552;27;20183;-64
2021/03/09 10:57:05;;;;;;;7.28;4.82;;;2.80;99.90;;;;;;5136628;27;20174;-63
2021/03/09 10:59:30;;;;;;;7.50;5.32;;;3.00;1.00;;;;;;5138719;27;20213;-64
2021/03/09 11:01:56;;;;;;;6.33;4.40;;;2.90;1.00;;;;;;5138278;27;20590;-65
2021/03/09 11:04:22;;;;;;;7.32;4.68;;;2.80;1.00;;;;;;5138122;27;20179;-64
2021/03/09 11:06:48;;;;;;;7.33;5.10;;;2.70;99.90;;;;;;5137313;27;20183;-63
2021/03/09 11:09:14;;;;;;;9.02;5.20;;;2.90;1.00;;;;;;5137077;27;20201;-64
2021/03/09 11:11:39;;;;;;;8.33;5.20;;;3.00;1.00;;;;;;5131442;27;20583;-61
2021/03/09 11:14:05;;;;;;;8.27;5.47;;;3.10;99.90;;;;;;5131401;27;20207;-62
2021/03/09 11:16:31;;;;;;;8.90;5.17;;;3.20;1.00;;;;;;5131814;27;20524;-64
2021/03/09 11:19:00;;;;;;;7.50;5.70;;;3.10;1.00;;;;;;5135933;27;20170;-63
2021/03/09 11:21:26;;;;;;;15.90;7.90;;;3.20;99.90;;;;;;5135377;27;20214;-63
2021/03/09 11:23:53;;;;;;;11.32;6.68;;;3.10;1.00;;;;;;5131585;27;20190;-63
2021/03/09 11:26:23;;;;;;;12.52;5.72;;;3.30;99.90;;;;;;5129536;27;20246;-66
2021/03/09 11:28:49;;;;;;;11.07;6.05;;;3.30;1.00;;;;;;5135341;27;20194;-69
2021/03/09 11:31:16;;;;;;;7.75;5.43;;;3.20;99.90;;;;;;5125866;27;20190;-71
2021/03/09 11:33:42;;;;;;;7.72;5.30;;;3.20;1.00;;;;;;5138400;27;20186;-70
2021/03/09 11:36:09;;;;;;;9.13;5.50;;;3.30;1.00;;;;;;5140640;27;20171;-71
2021/03/09 11:38:35;;;;;;;11.15;5.60;;;3.50;99.90;;;;;;5126279;27;20448;-68
2021/03/09 11:41:10;;;;;;;10.75;6.18;;;3.60;1.00;;;;;;5134641;27;20277;-69
2021/03/09 11:43:37;;;;;;;9.05;5.40;;;3.70;99.90;;;;;;5139493;27;20177;-70
2021/03/09 11:46:03;;;;;;;10.68;5.43;;;3.70;1.00;;;;;;5130710;27;20210;-69
2021/03/09 11:48:29;;;;;;;7.90;5.73;;;3.80;1.00;;;;;;5130790;27;20195;-68
2021/03/09 11:50:55;;;;;;;10.05;5.80;;;3.70;99.90;;;;;;5137428;27;20523;-67
2021/03/09 11:53:26;;;;;;;8.15;5.63;;;3.70;1.00;;;;;;5136103;27;20580;-65
2021/03/09 11:55:52;;;;;;;9.60;4.85;;;3.70;1.00;;;;;;5136554;27;20178;-65
2021/03/09 11:58:18;;;;;;;7.43;5.30;;;3.70;99.90;;;;;;5131454;27;20588;-67
2021/03/09 12:00:44;;;;;;;7.07;4.70;;;4.00;1.00;;;;;;5133910;27;20507;-65
2021/03/09 12:03:13;;;;;;;7.57;4.83;;;4.20;1.00;;;;;;5125501;27;20182;-69
2021/03/09 12:05:39;;;;;;;11.13;4.75;;;4.20;1.00;;;;;;5131715;27;20281;-68
2021/03/09 12:08:08;;;;;;;6.60;4.50;;;4.20;50.20;;;;;;5130508;27;20231;-68
2021/03/09 12:10:34;;;;;;;11.80;7.25;;;4.30;1.00;;;;;;5135581;27;20470;-70
2021/03/09 12:13:03;;;;;;;8.95;4.75;;;4.50;1.00;;;;;;5137078;27;20636;-67
2021/03/09 12:15:28;;;;;;;8.68;6.22;;;4.30;1.00;;;;;;5118928;27;20487;-66
2021/03/09 12:17:54;;;;;;;17.60;10.70;;;4.50;99.90;;;;;;5135953;27;20183;-68
2021/03/09 12:20:20;;;;;;;7.75;5.32;;;4.80;1.00;;;;;;5125091;27;20194;-66
2021/03/09 12:22:46;;;;;;;8.87;5.57;;;4.30;1.00;;;;;;5129301;27;20170;-67
2021/03/09 12:25:13;;;;;;;7.00;4.65;;;4.20;99.90;;;;;;5133375;27;20182;-67
2021/03/09 12:27:39;;;;;;;7.15;4.68;;;4.10;99.90;;;;;;5137341;27;20249;-66
2021/03/09 12:30:07;;;;;;;7.95;5.25;;;4.00;99.90;;;;;;5128571;27;20198;-67
2021/03/09 12:32:33;;;;;;;8.38;4.95;;;4.20;1.00;;;;;;5122939;27;20187;-69
2021/03/09 12:34:59;;;;;;;6.13;4.60;;;4.50;1.00;;;;;;5135687;27;20273;-68
2021/03/09 12:37:25;;;;;;;6.80;4.88;;;4.90;99.90;;;;;;5132929;27;20179;-66
2021/03/09 12:39:51;;;;;;;7.90;5.30;;;4.90;1.90;;;;;;5136761;27;20217;-64
2021/03/09 12:42:17;;;;;;;10.10;5.30;;;4.80;1.00;;;;;;5141315;27;20439;-64
2021/03/09 12:44:42;;;;;;;8.23;5.20;;;4.20;1.00;;;;;;5146750;27;20431;-67
2021/03/09 12:47:08;;;;;;;8.00;4.80;;;4.30;99.90;;;;;;5136444;27;20191;-68
2021/03/09 12:49:37;;;;;;;6.77;4.43;;;4.30;99.90;;;;;;5151393;27;20288;-63
2021/03/09 12:52:03;;;;;;;6.40;4.90;;;4.20;99.90;;;;;;5136564;27;20429;-68
2021/03/09 12:54:29;;;;;;;6.30;4.88;;;4.30;99.90;;;;;;5135064;28;20231;-66
2021/03/09 12:56:54;;;;;;;8.70;4.93;;;4.30;99.90;;;;;;5135238;28;20258;-69
2021/03/09 12:59:20;;;;;;;7.00;4.90;;;4.40;99.90;;;;;;5128948;28;20598;-67
2021/03/09 13:01:46;;;;;;;7.27;4.30;;;4.10;98.60;;;;;;5136251;28;20193;-65
2021/03/09 13:04:12;;;;;;;6.57;4.50;;;3.80;99.90;;;;;;5132199;27;20167;-65
2021/03/09 13:06:37;;;;;;;6.57;4.80;;;4.00;1.00;;;;;;5136312;28;20590;-67
2021/03/09 13:09:06;;;;;;;6.10;3.90;;;4.30;1.00;;;;;;5135576;28;20467;-69
2021/03/09 13:11:33;;;;;;;7.43;4.63;;;4.30;99.90;;;;;;5127493;27;20174;-71
2021/03/09 13:13:59;;;;;;;6.15;4.75;;;4.30;99.90;;;;;;5130451;27;20171;-70